PWSweather.com
Personal Weather Stations
Station Observations
PENICUIKWS
PenicuikGB

PenicuikGB

Lat: 55.830932, Lon: -3.224533000000065

Elevation: 166

Station Type: Fine Offset

http://weather.penicuik.org

High Low Average
Temperature 44.2°F6.8°C 34.7°F1.5°C 38.5°F3.6°C
Dew Point 31.2°F-0.4°C 26.5°F-3.1°C 28.9°F-1.7°C
Winds 5.0 mph 8.0 kmh 1.2 mph 1.9 kmh 3.0 mph ESE4.8 kmh ESE
Wind Gusts 10.7 mph17.2 kmh 2.2 mph3.5 kmh 5.0 mph8.0 kmh
Humidity 77% 59% 68%
Pressure 29.84 in1010.5 mb 29.37 in994.6 mb -
Precipitation 0.01 in0.3 mm - -
Hour Temp Dew Point Humidity Winds Wind Gusts Pressure Precip Precip Rate Daily Precip Total
12:00 AM 34.9°F1.6°C 28.4°F-2.0°C 77% 2.8 mph S4.5 kmh S 6.0 mph9.7 kmh 29.37 in994.6 mb 0.00 in0.0 mm 0.00 in0.0 mm 0.00 in0.0 mm
12:15 AM 35.1°F1.7°C 28.3°F-2.1°C 76% 3.1 mph S5.0 kmh S 7.6 mph12.2 kmh 29.38 in994.9 mb 0.00 in0.0 mm 0.00 in0.0 mm 0.00 in0.0 mm
12:30 AM 35.1°F1.7°C 28.6°F-1.9°C 77% 4.0 mph S6.4 kmh S 6.0 mph9.7 kmh 29.38 in994.9 mb 0.00 in0.0 mm 0.00 in0.0 mm 0.00 in0.0 mm
12:45 AM 34.9°F1.6°C 28.4°F-2.0°C 77% 3.8 mph S6.1 kmh S 6.0 mph9.7 kmh 29.39 in995.3 mb 0.00 in0.0 mm 0.00 in0.0 mm 0.00 in0.0 mm
01:00 AM 34.9°F1.6°C 28.4°F-2.0°C 77% 2.6 mph S4.2 kmh S 3.8 mph6.1 kmh 29.39 in995.3 mb 0.00 in0.0 mm 0.00 in0.0 mm 0.00 in0.0 mm
01:15 AM 34.7°F1.5°C 27.9°F-2.3°C 76% 2.9 mph S4.7 kmh S 4.5 mph7.2 kmh 29.38 in994.9 mb 0.00 in0.0 mm 0.00 in0.0 mm 0.00 in0.0 mm
01:30 AM 35.2°F1.8°C 28.1°F-2.2°C 75% 2.7 mph S4.3 kmh S 5.4 mph8.7 kmh 29.38 in994.9 mb 0.00 in0.0 mm 0.00 in0.0 mm 0.00 in0.0 mm
01:45 AM 35.2°F1.8°C 27.8°F-2.3°C 74% 2.6 mph S4.2 kmh S 4.5 mph7.2 kmh 29.39 in995.3 mb 0.00 in0.0 mm 0.00 in0.0 mm 0.00 in0.0 mm
02:00 AM 35.4°F1.9°C 28.0°F-2.2°C 74% 2.9 mph S4.7 kmh S 5.4 mph8.7 kmh 29.39 in995.3 mb 0.00 in0.0 mm 0.00 in0.0 mm 0.00 in0.0 mm
02:30 AM 35.4°F1.9°C 28.0°F-2.2°C 74% 2.5 mph S4.0 kmh S 4.5 mph7.2 kmh 29.40 in995.6 mb 0.00 in0.0 mm 0.00 in0.0 mm 0.00 in0.0 mm
02:45 AM 35.4°F1.9°C 27.6°F-2.4°C 73% 2.5 mph S4.0 kmh S 3.8 mph6.1 kmh 29.40 in995.6 mb 0.00 in0.0 mm 0.00 in0.0 mm 0.00 in0.0 mm
03:00 AM 35.4°F1.9°C 28.0°F-2.2°C 74% 3.7 mph S6.0 kmh S 6.0 mph9.7 kmh 29.41 in995.9 mb 0.00 in0.0 mm 0.00 in0.0 mm 0.00 in0.0 mm
03:15 AM 35.4°F1.9°C 28.0°F-2.2°C 74% 3.3 mph S5.3 kmh S 6.9 mph11.1 kmh 29.41 in995.9 mb 0.00 in0.0 mm 0.00 in0.0 mm 0.00 in0.0 mm
03:30 AM 35.4°F1.9°C 28.0°F-2.2°C 74% 3.7 mph S6.0 kmh S 7.6 mph12.2 kmh 29.42 in996.3 mb 0.00 in0.0 mm 0.00 in0.0 mm 0.00 in0.0 mm
03:45 AM 34.9°F1.6°C 27.5°F-2.5°C 74% 3.5 mph S5.6 kmh S 5.4 mph8.7 kmh 29.42 in996.3 mb 0.00 in0.0 mm 0.00 in0.0 mm 0.00 in0.0 mm
04:00 AM 34.7°F1.5°C 27.3°F-2.6°C 74% 1.9 mph S3.1 kmh S 3.1 mph5.0 kmh 29.42 in996.3 mb 0.00 in0.0 mm 0.00 in0.0 mm 0.00 in0.0 mm
04:15 AM 34.9°F1.6°C 27.8°F-2.3°C 75% 3.0 mph S4.8 kmh S 6.0 mph9.7 kmh 29.42 in996.3 mb 0.00 in0.0 mm 0.00 in0.0 mm 0.00 in0.0 mm
04:30 AM 35.2°F1.8°C 27.8°F-2.3°C 74% 3.3 mph S5.3 kmh S 5.4 mph8.7 kmh 29.43 in996.6 mb 0.00 in0.0 mm 0.00 in0.0 mm 0.00 in0.0 mm
04:45 AM 35.1°F1.7°C 27.6°F-2.4°C 74% 2.7 mph S4.3 kmh S 3.8 mph6.1 kmh 29.44 in997.0 mb 0.00 in0.0 mm 0.00 in0.0 mm 0.00 in0.0 mm
05:00 AM 35.1°F1.7°C 27.3°F-2.6°C 73% 2.9 mph S4.7 kmh S 4.5 mph7.2 kmh 29.43 in996.6 mb 0.00 in0.0 mm 0.00 in0.0 mm 0.00 in0.0 mm
05:15 AM 35.1°F1.7°C 27.0°F-2.8°C 72% 3.5 mph S5.6 kmh S 5.4 mph8.7 kmh 29.44 in997.0 mb 0.00 in0.0 mm 0.00 in0.0 mm 0.00 in0.0 mm
05:30 AM 35.1°F1.7°C 27.0°F-2.8°C 72% 3.8 mph S6.1 kmh S 5.4 mph8.7 kmh 29.45 in997.3 mb 0.00 in0.0 mm 0.00 in0.0 mm 0.00 in0.0 mm
05:45 AM 34.9°F1.6°C 26.5°F-3.1°C 71% 3.7 mph S6.0 kmh S 6.9 mph11.1 kmh 29.45 in997.3 mb 0.00 in0.0 mm 0.00 in0.0 mm 0.00 in0.0 mm
06:00 AM 35.1°F1.7°C 27.0°F-2.8°C 72% 3.8 mph S6.1 kmh S 7.6 mph12.2 kmh 29.44 in997.0 mb 0.00 in0.0 mm 0.00 in0.0 mm 0.00 in0.0 mm
06:15 AM 35.2°F1.8°C 27.5°F-2.5°C 73% 4.4 mph S7.1 kmh S 9.2 mph14.8 kmh 29.45 in997.3 mb 0.00 in0.0 mm 0.00 in0.0 mm 0.00 in0.0 mm
06:30 AM 35.2°F1.8°C 27.5°F-2.5°C 73% 3.4 mph S5.5 kmh S 5.4 mph8.7 kmh 29.45 in997.3 mb 0.00 in0.0 mm 0.00 in0.0 mm 0.00 in0.0 mm
06:45 AM 34.9°F1.6°C 26.8°F-2.9°C 72% 2.7 mph S4.3 kmh S 4.5 mph7.2 kmh 29.46 in997.6 mb 0.00 in0.0 mm 0.00 in0.0 mm 0.00 in0.0 mm
07:00 AM 34.9°F1.6°C 27.1°F-2.7°C 73% 3.5 mph S5.6 kmh S 5.4 mph8.7 kmh 29.46 in997.6 mb 0.00 in0.0 mm 0.00 in0.0 mm 0.00 in0.0 mm
07:15 AM 34.9°F1.6°C 27.5°F-2.5°C 74% 3.4 mph S5.5 kmh S 5.4 mph8.7 kmh 29.47 in998.0 mb 0.00 in0.0 mm 0.00 in0.0 mm 0.00 in0.0 mm
07:30 AM 35.1°F1.7°C 27.3°F-2.6°C 73% 3.1 mph S5.0 kmh S 6.9 mph11.1 kmh 29.49 in998.6 mb 0.00 in0.0 mm 0.00 in0.0 mm 0.00 in0.0 mm
07:45 AM 35.2°F1.8°C 27.8°F-2.3°C 74% 3.2 mph S5.1 kmh S 6.0 mph9.7 kmh 29.49 in998.6 mb 0.00 in0.0 mm 0.00 in0.0 mm 0.00 in0.0 mm
08:00 AM 35.4°F1.9°C 27.6°F-2.4°C 73% 2.9 mph S4.7 kmh S 5.4 mph8.7 kmh 29.49 in998.6 mb 0.00 in0.0 mm 0.00 in0.0 mm 0.00 in0.0 mm
08:15 AM 36.0°F2.2°C 27.5°F-2.5°C 71% 3.4 mph ESE5.5 kmh ESE 7.6 mph12.2 kmh 29.50 in999.0 mb 0.00 in0.0 mm 0.00 in0.0 mm 0.00 in0.0 mm
08:30 AM 36.1°F2.3°C 27.3°F-2.6°C 70% 3.1 mph NNW5.0 kmh NNW 8.3 mph13.4 kmh 29.51 in999.3 mb 0.00 in0.0 mm 0.00 in0.0 mm 0.00 in0.0 mm
08:45 AM 36.3°F2.4°C 27.5°F-2.5°C 70% 3.9 mph E6.3 kmh E 9.8 mph15.8 kmh 29.52 in999.7 mb 0.00 in0.0 mm 0.00 in0.0 mm 0.00 in0.0 mm
09:00 AM 37.0°F2.8°C 27.8°F-2.3°C 69% 3.6 mph ENE5.8 kmh ENE 6.0 mph9.7 kmh 29.52 in999.7 mb 0.00 in0.0 mm 0.00 in0.0 mm 0.00 in0.0 mm
09:15 AM 37.4°F3.0°C 29.2°F-1.6°C 72% 4.5 mph SSW7.2 kmh SSW 7.6 mph12.2 kmh 29.52 in999.7 mb 0.00 in0.0 mm 0.00 in0.0 mm 0.00 in0.0 mm
09:30 AM 38.1°F3.4°C 29.6°F-1.3°C 71% 4.3 mph N6.9 kmh N 10.7 mph17.2 kmh 29.53 in1000.0 mb 0.00 in0.0 mm 0.00 in0.0 mm 0.00 in0.0 mm
09:45 AM 41.5°F5.3°C 31.0°F-0.6°C 66% 3.4 mph WNW5.5 kmh WNW 5.4 mph8.7 kmh 29.53 in1000.0 mb 0.00 in0.0 mm 0.00 in0.0 mm 0.00 in0.0 mm
10:00 AM 41.0°F5.0°C 28.2°F-2.1°C 60% 3.1 mph NNW5.0 kmh NNW 5.4 mph8.7 kmh 29.54 in1000.3 mb 0.00 in0.0 mm 0.00 in0.0 mm 0.00 in0.0 mm
10:15 AM 39.7°F4.3°C 28.2°F-2.1°C 63% 3.2 mph SSE5.1 kmh SSE 4.5 mph7.2 kmh 29.55 in1000.7 mb 0.01 in0.3 mm 0.04 in1.0 mm 0.01 in0.3 mm
10:30 AM 40.1°F4.5°C 28.9°F-1.7°C 64% 3.5 mph NE5.6 kmh NE 6.9 mph11.1 kmh 29.56 in1001.0 mb 0.01 in0.3 mm 0.00 in0.0 mm 0.01 in0.3 mm
10:45 AM 41.2°F5.1°C 29.2°F-1.6°C 62% 4.0 mph NE6.4 kmh NE 6.9 mph11.1 kmh 29.56 in1001.0 mb 0.01 in0.3 mm 0.00 in0.0 mm 0.01 in0.3 mm
11:15 AM 42.1°F5.6°C 29.6°F-1.3°C 61% 3.6 mph NE5.8 kmh NE 6.0 mph9.7 kmh 29.58 in1001.7 mb 0.00 in0.0 mm 0.00 in0.0 mm 0.01 in0.3 mm
11:30 AM 40.8°F4.9°C 29.6°F-1.3°C 64% 3.9 mph NE6.3 kmh NE 6.0 mph9.7 kmh 29.58 in1001.7 mb 0.00 in0.0 mm 0.00 in0.0 mm 0.01 in0.3 mm
11:45 AM 41.0°F5.0°C 29.4°F-1.4°C 63% 4.2 mph E6.8 kmh E 6.0 mph9.7 kmh 29.59 in1002.0 mb 0.00 in0.0 mm 0.00 in0.0 mm 0.01 in0.3 mm
12:00 PM 41.2°F5.1°C 29.6°F-1.3°C 63% 4.9 mph NNE7.9 kmh NNE 6.9 mph11.1 kmh 29.60 in1002.4 mb 0.00 in0.0 mm 0.00 in0.0 mm 0.01 in0.3 mm
12:15 PM 41.7°F5.4°C 30.5°F-0.8°C 64% 3.0 mph NNE4.8 kmh NNE 4.5 mph7.2 kmh 29.62 in1003.0 mb 0.00 in0.0 mm 0.00 in0.0 mm 0.01 in0.3 mm
12:30 PM 42.1°F5.6°C 30.0°F-1.1°C 62% 4.0 mph NE6.4 kmh NE 4.5 mph7.2 kmh 29.61 in1002.7 mb 0.00 in0.0 mm 0.00 in0.0 mm 0.01 in0.3 mm
01:00 PM 43.7°F6.5°C 30.7°F-0.7°C 60% 3.4 mph NE5.5 kmh NE 5.4 mph8.7 kmh 29.63 in1003.4 mb 0.00 in0.0 mm 0.00 in0.0 mm 0.01 in0.3 mm
01:15 PM 43.9°F6.6°C 30.9°F-0.6°C 60% 4.0 mph NNE6.4 kmh NNE 4.5 mph7.2 kmh 29.63 in1003.4 mb 0.00 in0.0 mm 0.00 in0.0 mm 0.01 in0.3 mm
01:30 PM 44.2°F6.8°C 31.2°F-0.4°C 60% 2.9 mph NE4.7 kmh NE 4.5 mph7.2 kmh 29.63 in1003.4 mb 0.00 in0.0 mm 0.00 in0.0 mm 0.01 in0.3 mm
01:45 PM 44.2°F6.8°C 31.2°F-0.4°C 60% 3.6 mph NNE5.8 kmh NNE 5.4 mph8.7 kmh 29.64 in1003.7 mb 0.00 in0.0 mm 0.00 in0.0 mm 0.01 in0.3 mm
02:00 PM 43.7°F6.5°C 30.3°F-0.9°C 59% 3.5 mph NE5.6 kmh NE 7.6 mph12.2 kmh 29.64 in1003.7 mb 0.00 in0.0 mm 0.00 in0.0 mm 0.01 in0.3 mm
02:15 PM 43.3°F6.3°C 30.0°F-1.1°C 59% 4.3 mph NE6.9 kmh NE 6.9 mph11.1 kmh 29.65 in1004.1 mb 0.00 in0.0 mm 0.00 in0.0 mm 0.01 in0.3 mm
02:30 PM 43.0°F6.1°C 29.6°F-1.3°C 59% 3.3 mph ENE5.3 kmh ENE 4.5 mph7.2 kmh 29.64 in1003.7 mb 0.00 in0.0 mm 0.00 in0.0 mm 0.01 in0.3 mm
02:45 PM 42.8°F6.0°C 29.5°F-1.4°C 59% 3.6 mph NNE5.8 kmh NNE 6.0 mph9.7 kmh 29.64 in1003.7 mb 0.00 in0.0 mm 0.00 in0.0 mm 0.01 in0.3 mm
03:00 PM 42.3°F5.7°C 29.8°F-1.2°C 61% 2.0 mph NNE3.2 kmh NNE 3.8 mph6.1 kmh 29.66 in1004.4 mb 0.00 in0.0 mm 0.00 in0.0 mm 0.01 in0.3 mm
03:15 PM 41.7°F5.4°C 29.3°F-1.5°C 61% 3.2 mph NE5.1 kmh NE 4.5 mph7.2 kmh 29.66 in1004.4 mb 0.00 in0.0 mm 0.00 in0.0 mm 0.01 in0.3 mm
03:30 PM 41.7°F5.4°C 29.7°F-1.3°C 62% 2.9 mph E4.7 kmh E 5.4 mph8.7 kmh 29.67 in1004.7 mb 0.00 in0.0 mm 0.00 in0.0 mm 0.01 in0.3 mm
03:45 PM 41.5°F5.3°C 29.5°F-1.4°C 62% 2.8 mph E4.5 kmh E 5.4 mph8.7 kmh 29.68 in1005.1 mb 0.00 in0.0 mm 0.00 in0.0 mm 0.01 in0.3 mm
04:00 PM 40.8°F4.9°C 29.6°F-1.3°C 64% 1.2 mph N1.9 kmh N 2.2 mph3.5 kmh 29.69 in1005.4 mb 0.00 in0.0 mm 0.00 in0.0 mm 0.01 in0.3 mm
04:15 PM 40.6°F4.8°C 29.4°F-1.4°C 64% 3.2 mph NNE5.1 kmh NNE 3.8 mph6.1 kmh 29.69 in1005.4 mb 0.00 in0.0 mm 0.00 in0.0 mm 0.01 in0.3 mm
05:00 PM 39.9°F4.4°C 28.4°F-2.0°C 63% 3.9 mph NE6.3 kmh NE 6.0 mph9.7 kmh 29.70 in1005.8 mb 0.00 in0.0 mm 0.00 in0.0 mm 0.01 in0.3 mm
05:15 PM 40.1°F4.5°C 28.1°F-2.2°C 62% 4.0 mph NE6.4 kmh NE 5.4 mph8.7 kmh 29.71 in1006.1 mb 0.00 in0.0 mm 0.00 in0.0 mm 0.01 in0.3 mm
05:45 PM 40.3°F4.6°C 28.7°F-1.8°C 63% 2.4 mph NE3.9 kmh NE 3.8 mph6.1 kmh 29.73 in1006.8 mb 0.00 in0.0 mm 0.00 in0.0 mm 0.01 in0.3 mm
06:15 PM 40.8°F4.9°C 28.8°F-1.8°C 62% 3.0 mph NNE4.8 kmh NNE 3.1 mph5.0 kmh 29.74 in1007.1 mb 0.00 in0.0 mm 0.00 in0.0 mm 0.01 in0.3 mm
06:30 PM 41.0°F5.0°C 28.6°F-1.9°C 61% 4.5 mph NE7.2 kmh NE 6.0 mph9.7 kmh 29.74 in1007.1 mb 0.00 in0.0 mm 0.00 in0.0 mm 0.01 in0.3 mm
06:45 PM 40.8°F4.9°C 29.2°F-1.6°C 63% 4.4 mph NE7.1 kmh NE 6.0 mph9.7 kmh 29.75 in1007.5 mb 0.00 in0.0 mm 0.00 in0.0 mm 0.01 in0.3 mm
07:00 PM 40.8°F4.9°C 29.2°F-1.6°C 63% 5.0 mph NE8.0 kmh NE 6.0 mph9.7 kmh 29.74 in1007.1 mb 0.00 in0.0 mm 0.00 in0.0 mm 0.01 in0.3 mm
07:15 PM 40.6°F4.8°C 29.0°F-1.7°C 63% 3.3 mph NE5.3 kmh NE 4.5 mph7.2 kmh 29.75 in1007.5 mb 0.00 in0.0 mm 0.00 in0.0 mm 0.01 in0.3 mm
07:30 PM 40.1°F4.5°C 28.9°F-1.7°C 64% 2.5 mph NE4.0 kmh NE 3.8 mph6.1 kmh 29.76 in1007.8 mb 0.00 in0.0 mm 0.00 in0.0 mm 0.01 in0.3 mm
07:45 PM 40.3°F4.6°C 29.5°F-1.4°C 65% 3.1 mph WSW5.0 kmh WSW 3.8 mph6.1 kmh 29.76 in1007.8 mb 0.00 in0.0 mm 0.00 in0.0 mm 0.01 in0.3 mm
08:00 PM 40.6°F4.8°C 29.4°F-1.4°C 64% 3.7 mph E6.0 kmh E 5.4 mph8.7 kmh 29.77 in1008.1 mb 0.00 in0.0 mm 0.00 in0.0 mm 0.01 in0.3 mm
08:15 PM 40.3°F4.6°C 29.5°F-1.4°C 65% 2.8 mph NE4.5 kmh NE 3.8 mph6.1 kmh 29.77 in1008.1 mb 0.00 in0.0 mm 0.00 in0.0 mm 0.01 in0.3 mm
08:30 PM 39.9°F4.4°C 29.5°F-1.4°C 66% 3.6 mph NE5.8 kmh NE 4.5 mph7.2 kmh 29.78 in1008.5 mb 0.00 in0.0 mm 0.00 in0.0 mm 0.01 in0.3 mm
08:45 PM 39.6°F4.2°C 29.2°F-1.6°C 66% 3.8 mph NE6.1 kmh NE 5.4 mph8.7 kmh 29.78 in1008.5 mb 0.00 in0.0 mm 0.00 in0.0 mm 0.01 in0.3 mm
09:00 PM 38.8°F3.8°C 29.2°F-1.6°C 68% 2.5 mph N4.0 kmh N 3.8 mph6.1 kmh 29.77 in1008.1 mb 0.00 in0.0 mm 0.00 in0.0 mm 0.01 in0.3 mm
09:15 PM 38.8°F3.8°C 29.6°F-1.3°C 69% 3.3 mph NNE5.3 kmh NNE 5.4 mph8.7 kmh 29.78 in1008.5 mb 0.00 in0.0 mm 0.00 in0.0 mm 0.01 in0.3 mm
09:30 PM 38.7°F3.7°C 29.7°F-1.3°C 70% 2.8 mph N4.5 kmh N 3.8 mph6.1 kmh 29.78 in1008.5 mb 0.00 in0.0 mm 0.00 in0.0 mm 0.01 in0.3 mm
09:45 PM 38.8°F3.8°C 30.3°F-0.9°C 71% 2.9 mph NE4.7 kmh NE 4.5 mph7.2 kmh 29.78 in1008.5 mb 0.00 in0.0 mm 0.00 in0.0 mm 0.01 in0.3 mm
10:00 PM 39.6°F4.2°C 30.2°F-1.0°C 69% 2.5 mph NNE4.0 kmh NNE 3.8 mph6.1 kmh 29.80 in1009.1 mb 0.00 in0.0 mm 0.00 in0.0 mm 0.01 in0.3 mm
10:15 PM 39.6°F4.2°C 30.2°F-1.0°C 69% 2.0 mph NE3.2 kmh NE 3.8 mph6.1 kmh 29.80 in1009.1 mb 0.00 in0.0 mm 0.00 in0.0 mm 0.01 in0.3 mm
10:30 PM 39.6°F4.2°C 30.6°F-0.8°C 70% 1.9 mph NNE3.1 kmh NNE 3.8 mph6.1 kmh 29.81 in1009.5 mb 0.00 in0.0 mm 0.00 in0.0 mm 0.01 in0.3 mm
10:45 PM 39.6°F4.2°C 30.9°F-0.6°C 71% 1.6 mph NE2.6 kmh NE 2.2 mph3.5 kmh 29.82 in1009.8 mb 0.00 in0.0 mm 0.00 in0.0 mm 0.01 in0.3 mm
11:00 PM 39.6°F4.2°C 30.9°F-0.6°C 71% 1.9 mph NNE3.1 kmh NNE 3.8 mph6.1 kmh 29.82 in1009.8 mb 0.00 in0.0 mm 0.00 in0.0 mm 0.01 in0.3 mm
11:15 PM 39.6°F4.2°C 30.9°F-0.6°C 71% 2.1 mph N3.4 kmh N 3.8 mph6.1 kmh 29.83 in1010.2 mb 0.00 in0.0 mm 0.00 in0.0 mm 0.01 in0.3 mm
11:30 PM 38.8°F3.8°C 30.6°F-0.8°C 72% 1.9 mph N3.1 kmh N 4.5 mph7.2 kmh 29.83 in1010.2 mb 0.00 in0.0 mm 0.00 in0.0 mm 0.01 in0.3 mm
11:45 PM 39.6°F4.2°C 30.9°F-0.6°C 71% 1.8 mph NE2.9 kmh NE 5.4 mph8.7 kmh 29.84 in1010.5 mb 0.00 in0.0 mm 0.00 in0.0 mm 0.01 in0.3 mm